sensor_id;sensor_type;location;lat;lon;timestamp;pressure;altitude;pressure_sealevel;temperature;humidity
38912;BME280;28444;48.056;14.408;2024-03-08T00:01:42;97793.94;;;3.00;91.86
38912;BME280;28444;48.056;14.408;2024-03-08T00:04:11;97782.34;;;3.05;90.16
38912;BME280;28444;48.056;14.408;2024-03-08T00:06:38;97788.94;;;3.10;90.85
38912;BME280;28444;48.056;14.408;2024-03-08T00:09:06;97785.38;;;2.96;90.28
38912;BME280;28444;48.056;14.408;2024-03-08T00:11:34;97783.69;;;2.93;90.77
38912;BME280;28444;48.056;14.408;2024-03-08T00:14:01;97792.31;;;2.92;91.16
38912;BME280;28444;48.056;14.408;2024-03-08T00:16:28;97778.81;;;2.86;90.22
38912;BME280;28444;48.056;14.408;2024-03-08T00:18:55;97777.09;;;2.88;91.67
38912;BME280;28444;48.056;14.408;2024-03-08T00:21:22;97775.66;;;2.82;91.51
38912;BME280;28444;48.056;14.408;2024-03-08T00:23:48;97779.06;;;2.88;90.89
38912;BME280;28444;48.056;14.408;2024-03-08T00:26:15;97773.22;;;2.84;91.32
38912;BME280;28444;48.056;14.408;2024-03-08T00:28:42;97772.00;;;2.79;91.08
38912;BME280;28444;48.056;14.408;2024-03-08T00:31:09;97779.44;;;2.73;91.04
38912;BME280;28444;48.056;14.408;2024-03-08T00:33:36;97768.38;;;2.71;90.49
38912;BME280;28444;48.056;14.408;2024-03-08T00:36:03;97770.81;;;2.75;90.29
38912;BME280;28444;48.056;14.408;2024-03-08T00:38:30;97763.72;;;2.72;90.31
38912;BME280;28444;48.056;14.408;2024-03-08T00:40:58;97759.28;;;2.74;90.47
38912;BME280;28444;48.056;14.408;2024-03-08T00:43:24;97764.69;;;2.74;90.71
38912;BME280;28444;48.056;14.408;2024-03-08T00:45:51;97756.06;;;2.76;90.54
38912;BME280;28444;48.056;14.408;2024-03-08T00:48:18;97763.25;;;2.68;90.36
38912;BME280;28444;48.056;14.408;2024-03-08T00:50:44;97760.28;;;2.71;90.11
38912;BME280;28444;48.056;14.408;2024-03-08T00:53:12;97751.00;;;2.67;89.71
38912;BME280;28444;48.056;14.408;2024-03-08T00:55:39;97755.94;;;2.62;90.66
38912;BME280;28444;48.056;14.408;2024-03-08T00:58:06;97759.19;;;2.55;91.18
38912;BME280;28444;48.056;14.408;2024-03-08T01:00:32;97756.25;;;2.53;91.30
38912;BME280;28444;48.056;14.408;2024-03-08T01:02:59;97751.38;;;2.52;92.02
38912;BME280;28444;48.056;14.408;2024-03-08T01:05:26;97757.50;;;2.52;91.42
38912;BME280;28444;48.056;14.408;2024-03-08T01:07:53;97749.16;;;2.50;91.62
38912;BME280;28444;48.056;14.408;2024-03-08T01:10:20;97745.31;;;2.40;91.58
38912;BME280;28444;48.056;14.408;2024-03-08T01:12:47;97743.63;;;2.37;91.21
38912;BME280;28444;48.056;14.408;2024-03-08T01:15:13;97742.38;;;2.38;92.10
38912;BME280;28444;48.056;14.408;2024-03-08T01:17:40;97735.63;;;2.20;92.77
38912;BME280;28444;48.056;14.408;2024-03-08T01:20:08;97738.06;;;2.24;93.16
38912;BME280;28444;48.056;14.408;2024-03-08T01:22:38;97731.19;;;2.23;93.09
38912;BME280;28444;48.056;14.408;2024-03-08T01:25:05;97721.44;;;2.14;92.68
38912;BME280;28444;48.056;14.408;2024-03-08T01:27:31;97728.13;;;2.07;92.72
38912;BME280;28444;48.056;14.408;2024-03-08T01:29:58;97722.66;;;2.13;93.96
38912;BME280;28444;48.056;14.408;2024-03-08T01:32:26;97719.75;;;2.11;93.10
38912;BME280;28444;48.056;14.408;2024-03-08T01:34:53;97717.06;;;2.11;93.60
38912;BME280;28444;48.056;14.408;2024-03-08T01:37:19;97717.31;;;2.07;92.86
38912;BME280;28444;48.056;14.408;2024-03-08T01:39:46;97705.81;;;2.01;94.05
38912;BME280;28444;48.056;14.408;2024-03-08T01:42:13;97703.41;;;1.98;94.05
38912;BME280;28444;48.056;14.408;2024-03-08T01:44:41;97699.78;;;1.89;93.86
38912;BME280;28444;48.056;14.408;2024-03-08T01:47:10;97699.50;;;1.93;94.43
38912;BME280;28444;48.056;14.408;2024-03-08T01:49:37;97689.66;;;1.96;94.51
38912;BME280;28444;48.056;14.408;2024-03-08T01:52:23;97691.38;;;1.99;94.86
38912;BME280;28444;48.056;14.408;2024-03-08T01:55:23;97685.72;;;2.02;93.93
38912;BME280;28444;48.056;14.408;2024-03-08T01:57:59;97679.06;;;2.03;94.34
38912;BME280;28444;48.056;14.408;2024-03-08T02:00:52;97687.22;;;1.98;94.04
38912;BME280;28444;48.056;14.408;2024-03-08T02:03:20;97682.03;;;2.00;94.14
38912;BME280;28444;48.056;14.408;2024-03-08T02:05:47;97682.81;;;1.95;94.20
38912;BME280;28444;48.056;14.408;2024-03-08T02:08:15;97679.34;;;2.00;93.93
38912;BME280;28444;48.056;14.408;2024-03-08T02:10:46;97679.56;;;2.07;94.10
38912;BME280;28444;48.056;14.408;2024-03-08T02:13:12;97683.47;;;2.06;93.68
38912;BME280;28444;48.056;14.408;2024-03-08T02:15:59;97670.50;;;2.05;92.77
38912;BME280;28444;48.056;14.408;2024-03-08T02:18:27;97676.09;;;2.07;91.71
38912;BME280;28444;48.056;14.408;2024-03-08T02:20:55;97673.66;;;2.03;93.27
38912;BME280;28444;48.056;14.408;2024-03-08T02:23:23;97673.41;;;2.07;91.57
38912;BME280;28444;48.056;14.408;2024-03-08T02:25:54;97671.47;;;2.02;91.67
38912;BME280;28444;48.056;14.408;2024-03-08T02:28:23;97674.56;;;1.81;93.22
38912;BME280;28444;48.056;14.408;2024-03-08T02:30:52;97671.69;;;1.68;93.81
38912;BME280;28444;48.056;14.408;2024-03-08T02:33:23;97678.59;;;1.63;94.01
38912;BME280;28444;48.056;14.408;2024-03-08T02:35:50;97677.81;;;1.68;93.89
38912;BME280;28444;48.056;14.408;2024-03-08T02:38:19;97675.84;;;1.69;94.05
38912;BME280;28444;48.056;14.408;2024-03-08T02:40:47;97675.78;;;1.80;93.60
38912;BME280;28444;48.056;14.408;2024-03-08T02:43:15;97680.69;;;1.82;93.20
38912;BME280;28444;48.056;14.408;2024-03-08T02:45:42;97680.19;;;1.83;93.20
38912;BME280;28444;48.056;14.408;2024-03-08T02:48:10;97685.59;;;1.78;93.57
38912;BME280;28444;48.056;14.408;2024-03-08T02:50:37;97683.16;;;1.80;92.78
38912;BME280;28444;48.056;14.408;2024-03-08T02:53:06;97675.31;;;1.76;92.57
38912;BME280;28444;48.056;14.408;2024-03-08T02:55:34;97674.59;;;1.76;93.89
38912;BME280;28444;48.056;14.408;2024-03-08T02:58:03;97674.81;;;1.78;93.28
38912;BME280;28444;48.056;14.408;2024-03-08T03:00:30;97674.28;;;1.85;92.13
38912;BME280;28444;48.056;14.408;2024-03-08T03:03:00;97671.38;;;1.83;92.26
38912;BME280;28444;48.056;14.408;2024-03-08T03:05:29;97672.09;;;1.83;92.73
38912;BME280;28444;48.056;14.408;2024-03-08T03:07:56;97670.91;;;1.79;91.91
38912;BME280;28444;48.056;14.408;2024-03-08T03:10:26;97666.00;;;1.77;93.11
38912;BME280;28444;48.056;14.408;2024-03-08T03:12:52;97662.88;;;1.67;93.24
38912;BME280;28444;48.056;14.408;2024-03-08T03:15:19;97661.19;;;1.64;93.12
38912;BME280;28444;48.056;14.408;2024-03-08T03:17:47;97657.78;;;1.58;93.76
38912;BME280;28444;48.056;14.408;2024-03-08T03:20:14;97656.72;;;1.73;93.97
38912;BME280;28444;48.056;14.408;2024-03-08T03:22:42;97650.34;;;1.70;94.26
38912;BME280;28444;48.056;14.408;2024-03-08T03:25:13;97645.94;;;1.73;93.45
38912;BME280;28444;48.056;14.408;2024-03-08T03:27:40;97640.88;;;1.58;93.87
38912;BME280;28444;48.056;14.408;2024-03-08T03:30:08;97639.38;;;1.62;94.84
38912;BME280;28444;48.056;14.408;2024-03-08T03:32:51;97636.47;;;1.55;94.67
38912;BME280;28444;48.056;14.408;2024-03-08T03:35:18;97631.53;;;1.64;94.38
38912;BME280;28444;48.056;14.408;2024-03-08T03:37:47;97637.19;;;1.55;94.63
38912;BME280;28444;48.056;14.408;2024-03-08T03:40:49;97631.81;;;1.55;94.69
38912;BME280;28444;48.056;14.408;2024-03-08T03:43:18;97626.41;;;1.61;94.33
38912;BME280;28444;48.056;14.408;2024-03-08T03:45:45;97624.75;;;1.47;95.28
38912;BME280;28444;48.056;14.408;2024-03-08T03:48:12;97617.66;;;1.49;96.10
38912;BME280;28444;48.056;14.408;2024-03-08T03:50:39;97624.25;;;1.48;95.21
38912;BME280;28444;48.056;14.408;2024-03-08T03:53:07;97615.75;;;1.33;96.31
38912;BME280;28444;48.056;14.408;2024-03-08T03:55:35;97612.88;;;1.25;97.25
38912;BME280;28444;48.056;14.408;2024-03-08T03:58:03;97614.09;;;1.24;96.62
38912;BME280;28444;48.056;14.408;2024-03-08T04:00:30;97627.50;;;1.35;96.71
38912;BME280;28444;48.056;14.408;2024-03-08T04:02:57;97624.56;;;1.33;96.70
38912;BME280;28444;48.056;14.408;2024-03-08T04:05:27;97619.97;;;1.23;96.87
38912;BME280;28444;48.056;14.408;2024-03-08T04:07:57;97621.91;;;1.28;96.53
38912;BME280;28444;48.056;14.408;2024-03-08T04:10:23;97620.94;;;1.25;95.89
38912;BME280;28444;48.056;14.408;2024-03-08T04:12:50;97626.34;;;1.25;96.60
38912;BME280;28444;48.056;14.408;2024-03-08T04:15:17;97610.69;;;1.18;97.08
38912;BME280;28444;48.056;14.408;2024-03-08T04:17:44;97617.75;;;1.27;96.89
38912;BME280;28444;48.056;14.408;2024-03-08T04:20:13;97622.13;;;1.30;96.63
38912;BME280;28444;48.056;14.408;2024-03-08T04:22:41;97614.00;;;1.41;96.42
38912;BME280;28444;48.056;14.408;2024-03-08T04:25:08;97612.53;;;1.40;96.65
38912;BME280;28444;48.056;14.408;2024-03-08T04:27:36;97617.47;;;1.30;96.47
38912;BME280;28444;48.056;14.408;2024-03-08T04:30:03;97610.34;;;1.38;95.68
38912;BME280;28444;48.056;14.408;2024-03-08T04:32:30;97605.97;;;1.35;95.77
38912;BME280;28444;48.056;14.408;2024-03-08T04:34:59;97614.78;;;1.36;96.80
38912;BME280;28444;48.056;14.408;2024-03-08T04:37:28;97611.53;;;1.43;95.70
38912;BME280;28444;48.056;14.408;2024-03-08T04:39:59;97617.66;;;1.49;94.93
38912;BME280;28444;48.056;14.408;2024-03-08T04:42:27;97620.56;;;1.51;95.40
38912;BME280;28444;48.056;14.408;2024-03-08T04:44:56;97613.97;;;1.47;96.31
38912;BME280;28444;48.056;14.408;2024-03-08T04:47:23;97616.69;;;1.41;96.90
38912;BME280;28444;48.056;14.408;2024-03-08T04:49:49;97616.91;;;1.49;97.01
38912;BME280;28444;48.056;14.408;2024-03-08T04:52:17;97613.00;;;1.50;96.43
38912;BME280;28444;48.056;14.408;2024-03-08T04:54:43;97612.91;;;1.61;95.80
38912;BME280;28444;48.056;14.408;2024-03-08T04:57:13;97616.84;;;1.60;96.05
38912;BME280;28444;48.056;14.408;2024-03-08T04:59:40;97607.53;;;1.61;96.01
38912;BME280;28444;48.056;14.408;2024-03-08T05:02:06;97613.13;;;1.68;95.40
38912;BME280;28444;48.056;14.408;2024-03-08T05:04:33;97606.94;;;1.74;95.63
38912;BME280;28444;48.056;14.408;2024-03-08T05:07:01;97609.88;;;1.76;95.80
38912;BME280;28444;48.056;14.408;2024-03-08T05:09:28;97606.19;;;1.79;95.17
38912;BME280;28444;48.056;14.408;2024-03-08T05:11:55;97608.81;;;1.84;95.31
38912;BME280;28444;48.056;14.408;2024-03-08T05:14:23;97609.56;;;1.85;94.66
38912;BME280;28444;48.056;14.408;2024-03-08T05:16:51;97598.75;;;1.90;94.54
38912;BME280;28444;48.056;14.408;2024-03-08T05:19:19;97590.91;;;1.87;94.22
38912;BME280;28444;48.056;14.408;2024-03-08T05:21:49;97600.00;;;1.84;93.94
38912;BME280;28444;48.056;14.408;2024-03-08T05:24:17;97591.91;;;1.84;95.04
38912;BME280;28444;48.056;14.408;2024-03-08T05:26:45;97593.38;;;1.85;94.53
38912;BME280;28444;48.056;14.408;2024-03-08T05:29:14;97589.06;;;1.71;95.10
38912;BME280;28444;48.056;14.408;2024-03-08T05:31:49;97587.59;;;1.69;95.26
38912;BME280;28444;48.056;14.408;2024-03-08T05:34:17;97585.56;;;1.81;95.15
38912;BME280;28444;48.056;14.408;2024-03-08T05:36:43;97588.56;;;1.72;95.75
38912;BME280;28444;48.056;14.408;2024-03-08T05:39:15;97586.38;;;1.71;95.42
38912;BME280;28444;48.056;14.408;2024-03-08T05:41:43;97580.69;;;1.74;94.64
38912;BME280;28444;48.056;14.408;2024-03-08T05:44:10;97585.81;;;1.78;94.80
38912;BME280;28444;48.056;14.408;2024-03-08T05:46:37;97589.22;;;1.84;94.22
38912;BME280;28444;48.056;14.408;2024-03-08T05:49:05;97595.59;;;1.86;93.92
38912;BME280;28444;48.056;14.408;2024-03-08T05:51:33;97585.00;;;1.88;93.77
38912;BME280;28444;48.056;14.408;2024-03-08T05:54:04;97581.31;;;1.91;94.45
38912;BME280;28444;48.056;14.408;2024-03-08T05:56:32;97585.56;;;1.81;93.90
38912;BME280;28444;48.056;14.408;2024-03-08T05:58:59;97584.38;;;1.77;94.53
38912;BME280;28444;48.056;14.408;2024-03-08T06:01:27;97589.31;;;1.73;95.04
38912;BME280;28444;48.056;14.408;2024-03-08T06:03:55;97583.72;;;1.65;94.82
38912;BME280;28444;48.056;14.408;2024-03-08T06:06:24;97579.56;;;1.64;95.08
38912;BME280;28444;48.056;14.408;2024-03-08T06:08:51;97580.03;;;1.68;95.14
38912;BME280;28444;48.056;14.408;2024-03-08T06:11:20;97583.63;;;1.76;95.34
38912;BME280;28444;48.056;14.408;2024-03-08T06:13:47;97575.97;;;1.86;94.33
38912;BME280;28444;48.056;14.408;2024-03-08T06:16:14;97576.72;;;1.81;93.62
38912;BME280;28444;48.056;14.408;2024-03-08T06:18:41;97571.25;;;1.92;94.42
38912;BME280;28444;48.056;14.408;2024-03-08T06:21:08;97575.09;;;2.02;93.28
38912;BME280;28444;48.056;14.408;2024-03-08T06:23:39;97571.13;;;2.09;93.79
38912;BME280;28444;48.056;14.408;2024-03-08T06:26:06;97569.69;;;2.02;92.93
38912;BME280;28444;48.056;14.408;2024-03-08T06:28:34;97562.34;;;2.03;92.82
38912;BME280;28444;48.056;14.408;2024-03-08T06:31:02;97559.63;;;2.03;92.96
38912;BME280;28444;48.056;14.408;2024-03-08T06:33:29;97567.25;;;2.04;92.98
38912;BME280;28444;48.056;14.408;2024-03-08T06:35:56;97563.03;;;2.09;92.27
38912;BME280;28444;48.056;14.408;2024-03-08T06:38:24;97565.44;;;2.12;91.64
38912;BME280;28444;48.056;14.408;2024-03-08T06:40:52;97560.00;;;2.18;92.09
38912;BME280;28444;48.056;14.408;2024-03-08T06:43:19;97564.16;;;2.19;92.36
38912;BME280;28444;48.056;14.408;2024-03-08T06:45:46;97570.00;;;2.23;92.23
38912;BME280;28444;48.056;14.408;2024-03-08T06:48:16;97563.34;;;2.30;91.73
38912;BME280;28444;48.056;14.408;2024-03-08T06:50:44;97554.84;;;2.20;91.70
38912;BME280;28444;48.056;14.408;2024-03-08T06:53:12;97559.19;;;2.29;91.88
38912;BME280;28444;48.056;14.408;2024-03-08T06:55:39;97554.56;;;2.24;91.49
38912;BME280;28444;48.056;14.408;2024-03-08T06:58:06;97547.97;;;2.19;92.25
38912;BME280;28444;48.056;14.408;2024-03-08T07:00:37;97549.94;;;2.19;92.63
38912;BME280;28444;48.056;14.408;2024-03-08T07:03:07;97540.59;;;2.20;93.31
38912;BME280;28444;48.056;14.408;2024-03-08T07:05:34;97548.47;;;2.17;92.12
38912;BME280;28444;48.056;14.408;2024-03-08T07:08:01;97552.31;;;2.28;92.08
38912;BME280;28444;48.056;14.408;2024-03-08T07:10:28;97555.41;;;2.37;92.40
38912;BME280;28444;48.056;14.408;2024-03-08T07:12:55;97546.22;;;2.46;92.12
38912;BME280;28444;48.056;14.408;2024-03-08T07:15:22;97541.78;;;2.49;90.95
38912;BME280;28444;48.056;14.408;2024-03-08T07:17:49;97548.34;;;2.53;91.70
38912;BME280;28444;48.056;14.408;2024-03-08T07:20:19;97547.88;;;2.55;91.93
38912;BME280;28444;48.056;14.408;2024-03-08T07:22:46;97539.03;;;2.54;91.04
38912;BME280;28444;48.056;14.408;2024-03-08T07:25:19;97541.94;;;2.56;90.88
38912;BME280;28444;48.056;14.408;2024-03-08T07:27:51;97542.09;;;2.64;90.98
38912;BME280;28444;48.056;14.408;2024-03-08T07:30:20;97538.25;;;2.59;90.28
38912;BME280;28444;48.056;14.408;2024-03-08T07:33:06;97533.22;;;2.69;89.62
38912;BME280;28444;48.056;14.408;2024-03-08T07:35:34;97535.84;;;2.75;91.03
38912;BME280;28444;48.056;14.408;2024-03-08T07:38:04;97536.53;;;2.81;90.20
38912;BME280;28444;48.056;14.408;2024-03-08T07:40:38;97529.38;;;2.83;89.83
38912;BME280;28444;48.056;14.408;2024-03-08T07:43:07;97534.84;;;2.78;90.56
38912;BME280;28444;48.056;14.408;2024-03-08T07:45:34;97533.00;;;2.86;90.21
38912;BME280;28444;48.056;14.408;2024-03-08T07:48:03;97534.34;;;2.98;90.13
38912;BME280;28444;48.056;14.408;2024-03-08T07:50:30;97531.56;;;3.04;89.62
38912;BME280;28444;48.056;14.408;2024-03-08T07:52:57;97531.06;;;3.05;89.08
38912;BME280;28444;48.056;14.408;2024-03-08T07:55:24;97530.53;;;3.07;88.80
38912;BME280;28444;48.056;14.408;2024-03-08T07:57:51;97537.63;;;3.10;88.53
38912;BME280;28444;48.056;14.408;2024-03-08T08:00:18;97524.84;;;3.10;88.51
38912;BME280;28444;48.056;14.408;2024-03-08T08:02:45;97520.31;;;3.19;88.56
38912;BME280;28444;48.056;14.408;2024-03-08T08:05:12;97519.66;;;3.12;88.45
38912;BME280;28444;48.056;14.408;2024-03-08T08:07:40;97522.50;;;3.20;87.76
38912;BME280;28444;48.056;14.408;2024-03-08T08:10:10;97513.75;;;3.14;87.60
38912;BME280;28444;48.056;14.408;2024-03-08T08:12:45;97517.16;;;3.14;88.32
38912;BME280;28444;48.056;14.408;2024-03-08T08:15:12;97512.91;;;3.19;89.00
38912;BME280;28444;48.056;14.408;2024-03-08T08:17:39;97513.44;;;3.18;88.37
38912;BME280;28444;48.056;14.408;2024-03-08T08:20:06;97500.78;;;3.26;88.88
38912;BME280;28444;48.056;14.408;2024-03-08T08:22:33;97506.72;;;3.24;88.34
38912;BME280;28444;48.056;14.408;2024-03-08T08:24:59;97504.09;;;3.19;88.43
38912;BME280;28444;48.056;14.408;2024-03-08T08:27:26;97502.63;;;3.18;88.02
38912;BME280;28444;48.056;14.408;2024-03-08T08:29:53;97505.91;;;3.29;88.78
38912;BME280;28444;48.056;14.408;2024-03-08T08:32:19;97501.16;;;3.35;88.20
38912;BME280;28444;48.056;14.408;2024-03-08T08:34:46;97509.16;;;3.41;88.82
38912;BME280;28444;48.056;14.408;2024-03-08T08:37:13;97508.75;;;3.37;88.42
38912;BME280;28444;48.056;14.408;2024-03-08T08:39:40;97500.31;;;3.41;87.34
38912;BME280;28444;48.056;14.408;2024-03-08T08:42:06;97499.66;;;3.53;87.75
38912;BME280;28444;48.056;14.408;2024-03-08T08:44:35;97499.25;;;3.62;87.11
38912;BME280;28444;48.056;14.408;2024-03-08T08:47:02;97492.44;;;3.43;87.60
38912;BME280;28444;48.056;14.408;2024-03-08T08:49:38;97491.78;;;3.36;88.28
38912;BME280;28444;48.056;14.408;2024-03-08T08:52:05;97486.97;;;3.29;89.74
38912;BME280;28444;48.056;14.408;2024-03-08T08:54:42;97483.94;;;3.52;89.40
38912;BME280;28444;48.056;14.408;2024-03-08T08:57:15;97479.09;;;3.77;88.51
38912;BME280;28444;48.056;14.408;2024-03-08T08:59:41;97478.50;;;3.84;87.30
38912;BME280;28444;48.056;14.408;2024-03-08T09:02:08;97477.28;;;3.85;88.32
38912;BME280;28444;48.056;14.408;2024-03-08T09:04:43;97471.34;;;4.00;87.83
38912;BME280;28444;48.056;14.408;2024-03-08T09:07:10;97474.88;;;4.08;87.55
38912;BME280;28444;48.056;14.408;2024-03-08T09:09:37;97470.19;;;4.08;87.56
38912;BME280;28444;48.056;14.408;2024-03-08T09:12:05;97467.69;;;3.97;87.61
38912;BME280;28444;48.056;14.408;2024-03-08T09:14:31;97469.25;;;3.93;87.82
38912;BME280;28444;48.056;14.408;2024-03-08T09:16:58;97449.38;;;3.90;87.28
38912;BME280;28444;48.056;14.408;2024-03-08T09:19:25;97451.97;;;3.96;88.41
38912;BME280;28444;48.056;14.408;2024-03-08T09:21:52;97458.97;;;4.04;87.73
38912;BME280;28444;48.056;14.408;2024-03-08T09:24:19;97449.28;;;4.09;87.86
38912;BME280;28444;48.056;14.408;2024-03-08T09:26:46;97444.69;;;4.17;87.19
38912;BME280;28444;48.056;14.408;2024-03-08T09:29:12;97447.84;;;4.21;86.80
38912;BME280;28444;48.056;14.408;2024-03-08T09:31:39;97437.41;;;4.25;87.24
38912;BME280;28444;48.056;14.408;2024-03-08T09:34:06;97444.59;;;4.23;87.73
38912;BME280;28444;48.056;14.408;2024-03-08T09:36:36;97442.41;;;4.21;87.64
38912;BME280;28444;48.056;14.408;2024-03-08T09:39:03;97438.34;;;4.15;87.21
38912;BME280;28444;48.056;14.408;2024-03-08T09:41:29;97427.91;;;4.32;86.95
38912;BME280;28444;48.056;14.408;2024-03-08T09:43:57;97429.59;;;4.35;86.54
38912;BME280;28444;48.056;14.408;2024-03-08T09:46:26;97430.53;;;4.38;87.19
38912;BME280;28444;48.056;14.408;2024-03-08T09:48:54;97430.63;;;4.45;86.64
38912;BME280;28444;48.056;14.408;2024-03-08T09:51:27;97421.84;;;4.52;86.84
38912;BME280;28444;48.056;14.408;2024-03-08T09:53:54;97424.78;;;4.54;86.54
38912;BME280;28444;48.056;14.408;2024-03-08T09:56:22;97426.63;;;4.59;86.51
38912;BME280;28444;48.056;14.408;2024-03-08T09:58:50;97420.69;;;4.61;86.24
38912;BME280;28444;48.056;14.408;2024-03-08T10:01:35;97419.38;;;4.75;86.56
38912;BME280;28444;48.056;14.408;2024-03-08T10:04:02;97412.19;;;4.78;86.56
38912;BME280;28444;48.056;14.408;2024-03-08T10:06:29;97413.31;;;4.82;85.76
38912;BME280;28444;48.056;14.408;2024-03-08T10:08:55;97411.44;;;4.91;85.28
38912;BME280;28444;48.056;14.408;2024-03-08T10:11:24;97411.13;;;4.94;85.42
38912;BME280;28444;48.056;14.408;2024-03-08T10:13:51;97410.31;;;5.07;85.49
38912;BME280;28444;48.056;14.408;2024-03-08T10:16:18;97394.78;;;5.07;85.47
38912;BME280;28444;48.056;14.408;2024-03-08T10:18:46;97399.53;;;5.15;86.24
38912;BME280;28444;48.056;14.408;2024-03-08T10:21:13;97398.31;;;5.16;86.44
38912;BME280;28444;48.056;14.408;2024-03-08T10:23:41;97391.28;;;5.20;85.93
38912;BME280;28444;48.056;14.408;2024-03-08T10:26:15;97394.50;;;5.19;86.31
38912;BME280;28444;48.056;14.408;2024-03-08T10:28:44;97388.44;;;5.26;85.50
38912;BME280;28444;48.056;14.408;2024-03-08T10:31:11;97390.69;;;5.35;84.77
38912;BME280;28444;48.056;14.408;2024-03-08T10:33:39;97395.78;;;5.39;85.10
38912;BME280;28444;48.056;14.408;2024-03-08T10:36:07;97387.66;;;5.39;84.93
38912;BME280;28444;48.056;14.408;2024-03-08T10:38:36;97392.78;;;5.50;84.34
38912;BME280;28444;48.056;14.408;2024-03-08T10:41:04;97387.41;;;5.58;84.08
38912;BME280;28444;48.056;14.408;2024-03-08T10:46:29;97376.44;;;5.63;85.01
38912;BME280;28444;48.056;14.408;2024-03-08T10:48:58;97370.56;;;5.51;84.18
38912;BME280;28444;48.056;14.408;2024-03-08T10:51:30;97374.91;;;5.54;85.16
38912;BME280;28444;48.056;14.408;2024-03-08T10:53:57;97368.63;;;5.60;84.86
38912;BME280;28444;48.056;14.408;2024-03-08T10:56:25;97375.41;;;5.74;84.55
38912;BME280;28444;48.056;14.408;2024-03-08T10:58:55;97365.13;;;5.80;84.50
38912;BME280;28444;48.056;14.408;2024-03-08T11:01:23;97354.22;;;5.72;83.64
38912;BME280;28444;48.056;14.408;2024-03-08T11:03:52;97349.69;;;5.67;84.81
38912;BME280;28444;48.056;14.408;2024-03-08T11:06:41;97352.28;;;5.80;84.37
38912;BME280;28444;48.056;14.408;2024-03-08T11:09:11;97352.34;;;5.88;84.04
38912;BME280;28444;48.056;14.408;2024-03-08T11:11:43;97350.03;;;5.92;83.96
38912;BME280;28444;48.056;14.408;2024-03-08T11:14:59;97340.66;;;6.01;83.73
38912;BME280;28444;48.056;14.408;2024-03-08T11:19:58;97338.53;;;6.07;83.43
38912;BME280;28444;48.056;14.408;2024-03-08T11:22:29;97334.00;;;6.10;83.28
38912;BME280;28444;48.056;14.408;2024-03-08T11:25:07;97326.78;;;6.20;83.53
38912;BME280;28444;48.056;14.408;2024-03-08T11:27:37;97319.94;;;6.26;83.01
38912;BME280;28444;48.056;14.408;2024-03-08T11:30:06;97312.69;;;6.21;83.01
38912;BME280;28444;48.056;14.408;2024-03-08T11:32:45;97314.88;;;6.23;83.28
38912;BME280;28444;48.056;14.408;2024-03-08T11:35:20;97314.16;;;6.30;82.74
38912;BME280;28444;48.056;14.408;2024-03-08T11:37:47;97311.81;;;6.34;83.51
38912;BME280;28444;48.056;14.408;2024-03-08T11:40:15;97298.06;;;6.32;82.90
38912;BME280;28444;48.056;14.408;2024-03-08T11:42:46;97299.53;;;6.41;82.23
38912;BME280;28444;48.056;14.408;2024-03-08T11:45:15;97299.16;;;6.37;82.89
38912;BME280;28444;48.056;14.408;2024-03-08T11:47:44;97295.75;;;6.51;81.74
38912;BME280;28444;48.056;14.408;2024-03-08T11:50:16;97288.69;;;6.56;82.07
38912;BME280;28444;48.056;14.408;2024-03-08T11:52:46;97278.38;;;6.62;81.16
38912;BME280;28444;48.056;14.408;2024-03-08T11:55:13;97276.94;;;6.69;81.09
38912;BME280;28444;48.056;14.408;2024-03-08T11:57:40;97282.03;;;6.72;81.03
38912;BME280;28444;48.056;14.408;2024-03-08T12:00:29;97277.47;;;6.75;81.50
38912;BME280;28444;48.056;14.408;2024-03-08T12:03:03;97272.78;;;6.91;80.40
38912;BME280;28444;48.056;14.408;2024-03-08T12:05:30;97262.09;;;6.85;79.75
38912;BME280;28444;48.056;14.408;2024-03-08T12:07:58;97274.94;;;6.92;79.73
38912;BME280;28444;48.056;14.408;2024-03-08T12:10:29;97262.63;;;6.91;80.11
38912;BME280;28444;48.056;14.408;2024-03-08T12:12:58;97263.00;;;6.95;80.73
38912;BME280;28444;48.056;14.408;2024-03-08T12:15:31;97256.66;;;7.08;79.78
38912;BME280;28444;48.056;14.408;2024-03-08T12:18:05;97257.34;;;7.16;80.09
38912;BME280;28444;48.056;14.408;2024-03-08T12:21:17;97254.66;;;7.16;79.65
38912;BME280;28444;48.056;14.408;2024-03-08T12:24:06;97240.13;;;7.21;79.19
38912;BME280;28444;48.056;14.408;2024-03-08T12:26:39;97256.78;;;7.26;78.89
38912;BME280;28444;48.056;14.408;2024-03-08T12:29:17;97242.28;;;7.31;79.01
38912;BME280;28444;48.056;14.408;2024-03-08T12:31:55;97253.34;;;7.33;78.44
38912;BME280;28444;48.056;14.408;2024-03-08T12:34:25;97241.56;;;7.30;79.00
38912;BME280;28444;48.056;14.408;2024-03-08T12:36:56;97232.47;;;7.35;78.40
38912;BME280;28444;48.056;14.408;2024-03-08T12:39:25;97233.75;;;7.42;78.83
38912;BME280;28444;48.056;14.408;2024-03-08T12:41:56;97228.28;;;7.50;78.26
38912;BME280;28444;48.056;14.408;2024-03-08T12:44:29;97227.16;;;7.60;78.77
38912;BME280;28444;48.056;14.408;2024-03-08T12:47:03;97232.03;;;7.62;78.58
38912;BME280;28444;48.056;14.408;2024-03-08T12:49:30;97229.34;;;7.54;77.56
38912;BME280;28444;48.056;14.408;2024-03-08T12:51:59;97223.75;;;7.52;77.57
38912;BME280;28444;48.056;14.408;2024-03-08T12:54:32;97227.91;;;7.53;77.08
38912;BME280;28444;48.056;14.408;2024-03-08T12:57:01;97227.72;;;7.51;76.91
38912;BME280;28444;48.056;14.408;2024-03-08T12:59:30;97214.66;;;7.50;76.13
38912;BME280;28444;48.056;14.408;2024-03-08T13:01:58;97217.00;;;7.61;76.88
38912;BME280;28444;48.056;14.408;2024-03-08T13:04:29;97217.53;;;7.59;76.64
38912;BME280;28444;48.056;14.408;2024-03-08T13:06:59;97200.66;;;7.61;76.08
38912;BME280;28444;48.056;14.408;2024-03-08T13:09:27;97201.75;;;7.58;75.28
38912;BME280;28444;48.056;14.408;2024-03-08T13:11:54;97189.59;;;7.59;75.28
38912;BME280;28444;48.056;14.408;2024-03-08T13:14:21;97200.47;;;7.59;75.98
38912;BME280;28444;48.056;14.408;2024-03-08T13:16:48;97203.72;;;7.65;74.53